Tuesday, January 16, 2018, 6:50 AM EST
Back to Local

KDXR, Danbury Municipal Airport

Location: Danbury, CT, United States Lat: 41.367
Local Time: 6:50 AM EST (11:50 GMT) Lon: -73.483
Time Zone: US/Eastern Elev: 459 ft

Show me the last for .
Show Coded

Time T Td Feel RH Dir Speed Gust Alt SLP Vis Weather Sky Remarks
2018-01-16 05:53 22 11 - 62 - Calm - 30.49 30.51 10 OVC011 None
2018-01-16 04:53 21 12 16 67 90° 3 - 30.48 30.50 10 BKN013 OVC038 None
2018-01-16 04:45 21 12 16 67 70° 3 - 30.49 - 10 BKN013 OVC038 None
2018-01-16 04:23 21 12 - 67 - Calm - 30.48 - 10 SCT013 OVC039 None
2018-01-16 03:53 21 12 16 67 100° 3 - 30.48 30.50 10 BKN013 OVC039 None
2018-01-16 03:44 21 12 13 67 70° 6 - 30.48 - 10 BKN014 OVC038 None
2018-01-16 02:53 21 11 - 64 - Calm - 30.49 30.51 10 OVC016 None
2018-01-16 01:53 20 13 - 73 - Calm - 30.48 30.50 10 OVC019 None
2018-01-16 00:53 20 12 - 70 - Calm - 30.47 30.49 10 OVC019 6-hr Min Temp (1am): 18.0°F
6-hr Max Temp (1am): 24.1°F
2018-01-15 23:53 20 11 - 67 - Calm - 30.48 30.50 10 OVC015 24-hr Min Temp (12am): 10.9°F
24-hr Max Temp (12am): 26.1°F
2018-01-15 22:53 20 11 - 67 - Calm - 30.50 30.52 10 OVC016 None
2018-01-15 21:53 21 10 - 61 - Calm - 30.50 30.52 10 BKN015 None
2018-01-15 21:41 20 10 15 64 50° 3 - 30.50 - 10 BKN016 None
2018-01-15 20:53 21 10 15 61 80° 5 - 30.52 30.54 10 CLR None
2018-01-15 19:53 22 12 16 65 50° 5 - 30.54 30.56 10 BKN036 None
2018-01-15 18:53 24 14 17 64 60° 6 - 30.53 30.55 10 OVC036 6-hr Min Temp (7pm): 24.1°F
6-hr Max Temp (7pm): 26.1°F
2018-01-15 18:31 24 14 16 64 60° 7 - 30.53 - 10 FEW019 OVC035 None
2018-01-15 17:53 24 14 16 64 50° 7 - 30.54 30.56 10 OVC018 None
2018-01-15 16:53 25 14 18 62 40° 6 - 30.54 30.56 10 OVC021 None
2018-01-15 15:53 25 15 17 65 70° 7 - 30.54 30.56 10 OVC022 None
2018-01-15 14:53 26 14 19 59 Variable 6 - 30.54 30.56 10 OVC028 None
2018-01-15 13:53 25 13 17 59 20° 7 - 30.55 30.57 10 OVC032 None
2018-01-15 12:53 24 13 15 61 50° 8 - 30.57 30.59 10 OVC032 6-hr Min Temp (1pm): 12.0°F
6-hr Max Temp (1pm): 24.1°F
2018-01-15 11:53 23 12 14 62 50° 8 - 30.61 30.63 10 OVC032 None
2018-01-15 10:53 21 10 9 61 70° 12 - 30.65 30.67 10 OVC032 None
2018-01-15 09:53 18 8 5 64 50° 12 - 30.67 30.69 10 OVC031 None
2018-01-15 08:53 16 6 6 64 60° 7 - 30.69 30.71 10 OVC029 None
2018-01-15 07:53 14 4 6 63 60° 5 - 30.69 30.71 10 OVC029 None
2018-01-15 06:53 12 3 6 66 70° 3 - 30.69 30.71 10 BKN028 6-hr Min Temp (7am): 10.9°F
6-hr Max Temp (7am): 12.0°F

Support USWX by starting your Amazon purchase here.